Terminal Aerodrome Forecast
Issued by NWS Quad Cities IA IL

Home | Current Version | Previous Version | Text Only | Print | Product List | Glossary On
Versions: 1 2 3 4 5 6 7 8 9 10 11 12 13 14 15
000
FTUS43 KDVN 260243 AAB
TAFDBQ
TAF AMD
KDBQ 260243Z 2603/2624 32008KT P6SM BKN060 OVC100 PROB30 2612/2615
      5SM -SHRA BR BKN035
     FM261500 26008KT P6SM BKN035
     FM261700 29011KT P6SM BKN040=

USA.gov is the U.S. government's official web portal to all federal, state and local government web resources and services.